Tropical Cyclones
[Index]
Main Index Home Page Stock Weather Photos Extreme Storms Discussion Storm News and Storm Chasing Reports Tropical Cyclones / Hurricanes / Typhoons Weather Data and Links Wild Fires / Bushfires Weather Observation Techniques Weather Picture Catalogue Tornado Pictures and Reports Stock Video Footage and DVDs for sale
Season 2009-2010 Tropical Cyclone LAURENCE Track Map
Season 2009-2010 Summaries (Operational Data): [AU] [SIO] [SPAC] [SH]
<<- Previous TC | 2009-2010 Season | Next TC ->>

click for intensity scale information  Lat/long Grid: Show Hide

 Date Labels: Show Hide

Operational Tropical Cyclone Data : JTWC Advisories | BoM Warnings

Name: LAURENCE
Number: 1006

10 Dec 2009 06:00 UTC to 24 Dec 2009 00:00 UTC

    date/time    lat    long     hPa   cat  kts
2009-12-10 06   10.2   134.0    1002         30          
2009-12-10 12   10.3   133.6    1004         30          
2009-12-10 18   10.4   132.8    1003         30          
2009-12-11 00   10.6   132.8    1005         30          
2009-12-11 06   11.2   132.0    1003         30          
2009-12-11 12   11.5   131.6    1005         30          
2009-12-11 18   12.1   131.1    1003         30          
2009-12-12 00   12.5   130.7    1001         30          
2009-12-12 06   13.0   130.2    1002         30          
2009-12-12 12   13.1   130.0    1004         30          
2009-12-12 18   13.4   129.7    1000         30          
2009-12-13 00   13.5   129.4    1000    1    35          
2009-12-13 06   12.7   128.0     998    1    35          
2009-12-13 12   12.5   127.7     998    1    35          
2009-12-13 18   12.1   127.6     994    1    40          
2009-12-14 00   12.5   128.0     995    1    40          
2009-12-14 06   13.0   127.8     996    1    40          
2009-12-14 12   13.2   127.1     995    1    40          
2009-12-14 18   13.2   126.6     991    1    45          
2009-12-15 00   13.6   126.3     977    3    65          
2009-12-15 06   14.4   125.5     975    3    70          
2009-12-15 12   14.8   124.9     960    3    85          
2009-12-15 18   15.0   124.5     954    4    90          
2009-12-16 00   15.4   124.2     933    5   110          
2009-12-16 06   16.1   124.1     945    4   100          
2009-12-16 12   16.5   124.0     957    3    85          
2009-12-16 18   16.6   124.1     974    3    65          
2009-12-17 00   16.8   124.3     985    2    50          
2009-12-17 06   17.1   124.4     992    1    40          
2009-12-17 12   17.4   124.5     993    1    35          
2009-12-17 18   17.5   124.5     993    1    35          
2009-12-18 00   17.1   124.7     993    1    35          
2009-12-18 06   17.3   124.0     998         30          
2009-12-18 12   17.1   123.6     998         30          
2009-12-18 18   16.7   122.8     998         30          
2009-12-19 00   16.7   122.4     998         30          
2009-12-19 06   16.9   122.2     987    1    45          
2009-12-19 12   17.3   121.8     984    2    55          
2009-12-19 18   17.6   121.2     980    2    60          
2009-12-20 00   17.8   121.1     980    2    60          
2009-12-20 06   18.3   120.7     970    3    65          
2009-12-20 12   18.5   120.4     965    3    70          
2009-12-20 18   18.7   120.4     952    3    85          
2009-12-21 00   19.0   120.4     939    4   100          
2009-12-21 06   19.5   120.6     929    5   110          
2009-12-21 12   20.0   120.8     927    5   110          
2009-12-21 18   20.6   121.0     956    3    80          
2009-12-22 00   21.1   121.2     962    3    70          
2009-12-22 06   21.8   121.6     973    2    55          
2009-12-22 12   22.7   122.5     980    2    50          
2009-12-22 18   23.6   123.7     988    1    40          
2009-12-23 00   24.3   124.7     991    1    35          
2009-12-23 03   24.7   125.7     995         30          
2009-12-23 06   26.0   128.0     996                     
2009-12-23 12   27.0   130.0    1000                     
2009-12-23 18   26.0   134.0    1001                     
2009-12-24 00   26.0   136.0    1001                     
Winds are 10-min average.

Tropical cyclone tracks developed by Michael Bath using operational warnings and advisories and Google Maps.


[Australian Severe Weather index] [Copyright Notice] [Email Contacts] [Search This Site] [Privacy Policy]
Document: tropical_cyclone_laurence.htm Updated: 28 May 2013